Time;durP1;ratioP1;P1;durP2;ratioP2;P2;SDS_P1;SDS_P2;PMS_P1;PMS_P2;Temp;Humidity;BMP_temperature;BMP_pressure;BME280_temperature;BME280_humidity;BME280_pressure;Samples;Min_cycle;Max_cycle;Signal;HPM_P1;HPM_P2
2023/01/09 00:01:03;;;;;;;8.23;4.50;;;;;;;;;;6083856;23;20525;-83
2023/01/09 00:03:28;;;;;;;8.95;4.70;;;;;;;;;;6066279;23;20044;-84
2023/01/09 00:05:54;;;;;;;8.75;4.70;;;;;;;;;;6097676;23;20017;-84
2023/01/09 00:08:37;;;;;;;14.27;6.63;;;;;;;;;;6109218;23;20354;-83
2023/01/09 00:11:08;;;;;;;11.40;6.45;;;;;;;;;;6066774;23;20013;-84
2023/01/09 00:13:34;;;;;;;10.68;5.70;;;;;;;;;;6090659;23;20453;-84
2023/01/09 00:16:00;;;;;;;9.52;5.25;;;;;;;;;;6120432;23;20056;-83
2023/01/09 00:18:30;;;;;;;10.85;5.22;;;;;;;;;;6091792;23;20021;-84
2023/01/09 00:21:00;;;;;;;9.38;5.30;;;;;;;;;;6064985;23;20064;-85
2023/01/09 00:23:26;;;;;;;9.93;4.65;;;;;;;;;;6095770;23;20023;-84
2023/01/09 00:26:04;;;;;;;7.93;4.68;;;;;;;;;;6085799;23;20022;-84
2023/01/09 00:28:30;;;;;;;9.70;4.93;;;;;;;;;;6102479;23;20460;-84
2023/01/09 00:30:59;;;;;;;8.63;4.57;;;;;;;;;;6145623;23;20092;-84
2023/01/09 00:33:28;;;;;;;9.90;4.80;;;;;;;;;;6146347;23;20017;-84
2023/01/09 00:35:53;;;;;;;8.55;4.97;;;;;;;;;;6096437;23;20449;-84
2023/01/09 00:38:19;;;;;;;8.10;5.00;;;;;;;;;;6146374;23;20033;-85
2023/01/09 00:40:44;;;;;;;9.95;5.32;;;;;;;;;;6106395;23;20013;-84
2023/01/09 00:43:09;;;;;;;8.20;4.60;;;;;;;;;;6145998;23;20058;-84
2023/01/09 00:45:35;;;;;;;8.90;5.10;;;;;;;;;;6097233;23;20017;-85
2023/01/09 00:48:05;;;;;;;10.27;5.53;;;;;;;;;;6086356;23;20044;-84
2023/01/09 00:50:32;;;;;;;8.73;4.85;;;;;;;;;;6121445;23;20020;-84
2023/01/09 00:53:01;;;;;;;9.90;5.67;;;;;;;;;;6086423;23;20508;-85
2023/01/09 00:55:26;;;;;;;9.55;5.40;;;;;;;;;;6115695;23;20025;-84
2023/01/09 00:57:52;;;;;;;9.80;5.30;;;;;;;;;;6096666;23;20349;-84
2023/01/09 01:00:18;;;;;;;10.23;5.68;;;;;;;;;;6145013;23;20010;-85
2023/01/09 01:02:43;;;;;;;10.68;5.25;;;;;;;;;;6096924;23;20077;-84
2023/01/09 01:07:55;;;;;;;11.45;5.95;;;;;;;;;;6124573;23;20040;-85
2023/01/09 01:10:23;;;;;;;;;;;;;;;;;;6121466;23;20339;-85
2023/01/09 01:12:49;;;;;;;9.45;5.22;;;;;;;;;;6096961;23;20325;-85
2023/01/09 01:15:15;;;;;;;9.98;5.55;;;;;;;;;;6096520;23;20117;-84
2023/01/09 01:17:41;;;;;;;10.88;6.40;;;;;;;;;;6096965;23;20016;-84
2023/01/09 01:20:12;;;;;;;10.88;6.15;;;;;;;;;;6096424;23;20450;-84
2023/01/09 01:22:41;;;;;;;11.07;6.35;;;;;;;;;;6145387;23;20028;-85
2023/01/09 01:25:06;;;;;;;11.82;6.38;;;;;;;;;;6120670;23;20444;-85
2023/01/09 01:27:35;;;;;;;11.38;6.30;;;;;;;;;;6121214;23;20077;-84
2023/01/09 01:30:01;;;;;;;11.95;6.60;;;;;;;;;;6121289;23;20026;-83
2023/01/09 01:32:26;;;;;;;10.77;5.93;;;;;;;;;;6096293;23;20063;-84
2023/01/09 01:34:51;;;;;;;12.50;6.95;;;;;;;;;;6145455;23;20486;-83
2023/01/09 01:37:17;;;;;;;14.43;7.47;;;;;;;;;;6095809;23;20023;-85
2023/01/09 01:39:42;;;;;;;11.82;6.32;;;;;;;;;;6096650;23;20014;-83
2023/01/09 01:42:11;;;;;;;8.98;5.60;;;;;;;;;;6095084;23;20021;-83
2023/01/09 01:44:58;;;;;;;12.25;6.97;;;;;;;;;;6096418;23;20535;-84
2023/01/09 01:48:07;;;;;;;12.15;6.80;;;;;;;;;;6119590;23;20029;-84
2023/01/09 01:50:45;;;;;;;13.07;6.85;;;;;;;;;;6027227;23;20037;-84
2023/01/09 01:53:17;;;;;;;11.05;6.45;;;;;;;;;;6084732;23;20025;-84
2023/01/09 01:55:50;;;;;;;12.70;6.75;;;;;;;;;;6095555;23;20108;-84
2023/01/09 01:58:15;;;;;;;13.48;7.25;;;;;;;;;;6120313;23;20025;-83
2023/01/09 02:00:44;;;;;;;11.55;6.55;;;;;;;;;;6095370;23;20075;-84
2023/01/09 02:03:09;;;;;;;13.20;7.15;;;;;;;;;;6120119;23;20105;-84
2023/01/09 02:05:37;;;;;;;13.20;7.43;;;;;;;;;;6144234;23;20451;-84
2023/01/09 02:08:04;;;;;;;11.85;6.30;;;;;;;;;;6096356;23;20561;-85
2023/01/09 02:10:30;;;;;;;13.13;7.03;;;;;;;;;;6120000;23;20045;-84
2023/01/09 02:12:55;;;;;;;12.32;6.95;;;;;;;;;;6120566;23;20018;-84
2023/01/09 02:15:21;;;;;;;11.40;7.05;;;;;;;;;;6144817;23;20024;-84
2023/01/09 02:18:04;;;;;;;12.77;6.93;;;;;;;;;;6095980;23;20350;-83
2023/01/09 02:20:38;;;;;;;11.52;6.55;;;;;;;;;;6118691;23;20053;-83
2023/01/09 02:23:38;;;;;;;12.77;6.57;;;;;;;;;;6095702;23;20025;-84
2023/01/09 02:26:11;;;;;;;13.68;7.22;;;;;;;;;;6144895;23;20466;-84
2023/01/09 02:28:48;;;;;;;12.20;7.15;;;;;;;;;;6120054;23;20465;-83
2023/01/09 02:31:44;;;;;;;13.20;7.72;;;;;;;;;;6119243;23;20018;-83
2023/01/09 02:34:21;;;;;;;13.68;7.30;;;;;;;;;;6120969;23;20092;-83
2023/01/09 02:36:52;;;;;;;13.00;6.78;;;;;;;;;;6119383;23;20028;-82
2023/01/09 02:39:30;;;;;;;12.05;6.50;;;;;;;;;;6119443;23;20029;-85
2023/01/09 02:42:20;;;;;;;11.18;6.38;;;;;;;;;;6119539;23;20017;-83
2023/01/09 02:44:46;;;;;;;11.68;6.93;;;;;;;;;;6095232;23;20041;-83
2023/01/09 02:47:14;;;;;;;13.73;6.95;;;;;;;;;;6118390;23;20014;-83
2023/01/09 02:49:41;;;;;;;15.60;7.95;;;;;;;;;;6120014;23;20416;-84
2023/01/09 02:52:32;;;;;;;14.05;7.45;;;;;;;;;;6095460;23;20018;-84
2023/01/09 02:55:34;;;;;;;15.45;8.45;;;;;;;;;;6153939;23;20029;-83
2023/01/09 02:58:25;;;;;;;12.10;7.40;;;;;;;;;;6145403;23;20021;-83
2023/01/09 03:01:18;;;;;;;13.65;7.75;;;;;;;;;;6118690;23;20051;-82
2023/01/09 03:04:09;;;;;;;14.32;7.65;;;;;;;;;;6119540;23;20024;-83
2023/01/09 03:06:40;;;;;;;15.60;8.30;;;;;;;;;;6118837;23;20437;-83
2023/01/09 03:09:12;;;;;;;15.50;8.15;;;;;;;;;;6119676;23;20045;-83
2023/01/09 03:11:43;;;;;;;14.55;7.78;;;;;;;;;;6094015;23;20041;-84
2023/01/09 03:14:13;;;;;;;14.68;8.38;;;;;;;;;;6145355;23;20025;-83
2023/01/09 03:16:39;;;;;;;14.40;8.00;;;;;;;;;;6118626;23;20017;-83
2023/01/09 03:19:09;;;;;;;15.02;7.90;;;;;;;;;;6096103;23;20021;-82
2023/01/09 03:21:35;;;;;;;14.95;7.97;;;;;;;;;;6143401;23;20049;-84
2023/01/09 03:24:01;;;;;;;16.00;8.32;;;;;;;;;;6095954;23;20037;-84
2023/01/09 03:26:28;;;;;;;15.73;8.65;;;;;;;;;;6094503;23;20029;-84
2023/01/09 03:28:54;;;;;;;14.43;8.02;;;;;;;;;;6095948;23;20015;-83
2023/01/09 03:31:20;;;;;;;14.88;8.23;;;;;;;;;;6095026;23;20020;-84
2023/01/09 03:33:45;;;;;;;15.05;8.35;;;;;;;;;;6095738;23;20018;-83
2023/01/09 03:36:12;;;;;;;15.68;8.98;;;;;;;;;;6094463;23;20025;-86
2023/01/09 03:38:37;;;;;;;15.63;8.50;;;;;;;;;;6118308;23;20018;-87
2023/01/09 03:41:06;;;;;;;16.17;8.30;;;;;;;;;;6143499;23;20354;-86
2023/01/09 03:43:34;;;;;;;14.85;8.55;;;;;;;;;;6088311;23;20037;-87
2023/01/09 03:46:00;;;;;;;14.50;8.02;;;;;;;;;;6068255;23;20446;-86
2023/01/09 03:48:28;;;;;;;12.95;7.78;;;;;;;;;;6120619;23;20026;-86
2023/01/09 03:50:57;;;;;;;16.02;8.20;;;;;;;;;;6109633;23;20111;-88
2023/01/09 03:53:29;;;;;;;17.38;8.65;;;;;;;;;;6096109;23;20164;-88
2023/01/09 03:55:56;;;;;;;15.70;8.32;;;;;;;;;;6103470;23;20025;-88
2023/01/09 03:58:23;;;;;;;15.23;8.05;;;;;;;;;;6080026;23;20472;-88
2023/01/09 04:00:49;;;;;;;14.50;7.82;;;;;;;;;;6109601;23;20037;-88
2023/01/09 04:03:16;;;;;;;14.40;8.23;;;;;;;;;;6092716;23;20013;-87
2023/01/09 04:05:43;;;;;;;13.77;8.20;;;;;;;;;;6125372;23;20016;-88
2023/01/09 04:08:08;;;;;;;16.17;9.07;;;;;;;;;;6100739;23;20052;-87
2023/01/09 04:10:34;;;;;;;15.23;8.98;;;;;;;;;;6121829;23;20014;-87
2023/01/09 04:12:59;;;;;;;14.43;8.50;;;;;;;;;;6145370;23;20017;-87
2023/01/09 04:15:24;;;;;;;15.50;8.63;;;;;;;;;;6120539;23;20021;-87
2023/01/09 04:17:50;;;;;;;15.88;8.43;;;;;;;;;;6094325;23;20018;-87
2023/01/09 04:20:16;;;;;;;16.27;8.70;;;;;;;;;;6145175;23;20124;-86
2023/01/09 04:22:41;;;;;;;15.65;9.05;;;;;;;;;;6145635;23;20025;-86
2023/01/09 04:25:07;;;;;;;16.40;8.32;;;;;;;;;;6147642;23;20028;-88
2023/01/09 04:27:35;;;;;;;15.50;8.38;;;;;;;;;;6097246;23;20067;-84
2023/01/09 04:30:38;;;;;;;14.68;8.68;;;;;;;;;;6096454;23;20595;-88
2023/01/09 04:38:17;;;;;;;;;;;;;;;;;;;;;
2023/01/09 04:48:19;;;;;;;15.88;8.23;;;;;;;;;;5777559;24;20022;-89
2023/01/09 05:05:34;;;;;;;17.52;8.43;;;;;;;;;;5653629;24;20267;-87
2023/01/09 05:09:36;;;;;;;;;;;;;;;;;;;;;
2023/01/09 05:20:06;;;;;;;18.13;9.60;;;;;;;;;;5683699;25;20489;-90
2023/01/09 06:01:45;;;;;;;16.63;8.82;;;;;;;;;;5091401;27;20122;-87
2023/01/09 06:04:10;;;;;;;18.40;10.15;;;;;;;;;;5105052;27;20052;-86
2023/01/09 06:06:36;;;;;;;20.73;10.73;;;;;;;;;;5068845;27;20074;-87
2023/01/09 06:09:02;;;;;;;20.67;11.02;;;;;;;;;;5076674;28;20509;-87
2023/01/09 06:11:28;;;;;;;20.23;10.15;;;;;;;;;;5066753;27;20429;-88
2023/01/09 06:13:53;;;;;;;20.67;11.10;;;;;;;;;;5074583;27;20035;-88
2023/01/09 06:16:22;;;;;;;20.77;11.63;;;;;;;;;;5073039;28;20127;-87
2023/01/09 06:18:47;;;;;;;20.23;10.45;;;;;;;;;;5086189;27;20036;-86
2023/01/09 06:21:13;;;;;;;21.17;11.10;;;;;;;;;;5084163;28;20029;-88
2023/01/09 06:24:21;;;;;;;20.95;11.48;;;;;;;;;;5087115;28;20046;-95
2023/01/09 06:34:01;;;;;;;20.65;10.55;;;;;;;;;;4939848;28;20069;-93
2023/01/09 06:36:43;;;;;;;20.77;10.68;;;;;;;;;;4918467;28;20073;-91
2023/01/09 06:42:53;;;;;;;23.52;11.32;;;;;;;;;;4880167;28;20040;-92
2023/01/09 06:49:05;;;;;;;20.60;10.65;;;;;;;;;;4956645;28;20101;-91
2023/01/09 06:59:21;;;;;;;;;;;;;;;;;;;;;
2023/01/09 07:05:13;;;;;;;18.80;10.37;;;;;;;;;;4900192;28;20047;-90
2023/01/09 07:07:57;;;;;;;21.88;11.20;;;;;;;;;;4940419;28;20276;-90
2023/01/09 07:11:24;;;;;;;26.67;12.35;;;;;;;;;;4989185;28;20047;-92
2023/01/09 07:14:10;;;;;;;21.20;10.77;;;;;;;;;;4916666;28;20070;-90
2023/01/09 07:17:08;;;;;;;31.38;14.05;;;;;;;;;;4968449;28;20045;-90
2023/01/09 07:19:39;;;;;;;21.65;11.93;;;;;;;;;;5020082;28;20047;-90
2023/01/09 07:25:34;;;;;;;22.38;11.10;;;;;;;;;;4928860;28;20042;-94
2023/01/09 07:29:04;;;;;;;23.40;11.43;;;;;;;;;;4997502;28;20192;-91
2023/01/09 07:32:17;;;;;;;20.73;11.20;;;;;;;;;;4922331;28;20079;-91
2023/01/09 07:34:57;;;;;;;22.13;11.00;;;;;;;;;;4890448;28;20798;-90
2023/01/09 07:41:09;;;;;;;20.25;10.38;;;;;;;;;;4899781;29;20039;-90
2023/01/09 07:43:55;;;;;;;22.95;12.10;;;;;;;;;;4933068;28;20124;-91
2023/01/09 07:47:22;;;;;;;;;;;;;;;;;;;;;
2023/01/09 07:50:25;;;;;;;23.35;11.35;;;;;;;;;;4979800;28;20603;-91
2023/01/09 07:53:29;;;;;;;;;;;;;;;;;;;;;
2023/01/09 07:56:18;;;;;;;23.70;11.98;;;;;;;;;;4847926;29;20538;-91
2023/01/09 07:59:31;;;;;;;21.15;11.15;;;;;;;;;;4861376;29;20050;-91
2023/01/09 08:02:29;;;;;;;;;;;;;;;;;;;;;
2023/01/09 08:05:27;;;;;;;21.92;10.57;;;;;;;;;;4908669;28;20042;-91
2023/01/09 08:08:05;;;;;;;20.42;10.55;;;;;;;;;;4924910;28;20414;-90
2023/01/09 08:14:48;;;;;;;21.95;10.48;;;;;;;;;;4832240;29;20355;-91
2023/01/09 08:18:10;;;;;;;22.45;10.55;;;;;;;;;;4845608;29;20570;-90
2023/01/09 08:21:15;;;;;;;22.23;11.00;;;;;;;;;;4869696;28;20544;-90
2023/01/09 08:24:46;;;;;;;21.40;11.02;;;;;;;;;;4937642;28;20162;-93
2023/01/09 08:28:08;;;;;;;20.27;10.32;;;;;;;;;;4859273;28;20568;-91
2023/01/09 08:30:44;;;;;;;;;;;;;;;;;;;;;
2023/01/09 08:33:55;;;;;;;;;;;;;;;;;;;;;
2023/01/09 08:36:52;;;;;;;26.38;12.43;;;;;;;;;;5013135;28;20051;-91
2023/01/09 08:40:13;;;;;;;21.83;10.63;;;;;;;;;;5005851;28;20109;-91
2023/01/09 08:48:49;;;;;;;;;;;;;;;;;;;;;
2023/01/09 08:51:24;;;;;;;21.35;11.02;;;;;;;;;;4994613;28;20073;-90
2023/01/09 08:54:14;;;;;;;24.33;11.52;;;;;;;;;;4963766;28;20121;-90
2023/01/09 08:57:25;;;;;;;;;;;;;;;;;;;;;
2023/01/09 09:03:53;;;;;;;22.45;11.35;;;;;;;;;;4966401;28;20481;-90
2023/01/09 09:07:07;;;;;;;19.63;10.95;;;;;;;;;;4953890;28;20087;-91
2023/01/09 09:09:45;;;;;;;23.77;11.52;;;;;;;;;;4957111;28;20058;-90
2023/01/09 09:12:13;;;;;;;;;;;;;;;;;;4959108;28;20480;-90
2023/01/09 09:15:22;;;;;;;20.67;10.80;;;;;;;;;;4914988;28;20380;-91
2023/01/09 09:18:18;;;;;;;;;;;;;;;;;;;;;
2023/01/09 09:25:08;;;;;;;23.75;11.18;;;;;;;;;;4917411;28;20046;-92
2023/01/09 09:31:48;;;;;;;20.08;10.13;;;;;;;;;;4911447;28;20055;-91
2023/01/09 09:34:32;;;;;;;22.85;11.52;;;;;;;;;;4855255;28;20116;-90
2023/01/09 09:37:35;;;;;;;;;;;;;;;;;;;;;
2023/01/09 09:41:11;;;;;;;;;;;;;;;;;;;;;
2023/01/09 09:47:39;;;;;;;;;;;;;;;;;;;;;
2023/01/09 10:07:48;;;;;;;17.20;8.35;;;;;;;;;;4874274;28;21824;-90
2023/01/09 10:17:44;;;;;;;;;;;;;;;;;;;;;
2023/01/09 10:20:58;;;;;;;;;;;;;;;;;;;;;
2023/01/09 10:35:01;;;;;;;12.55;6.88;;;;;;;;;;4840876;29;20041;-89
2023/01/09 10:38:07;;;;;;;;;;;;;;;;;;;;;
2023/01/09 10:41:33;;;;;;;11.50;6.50;;;;;;;;;;4750879;29;20856;-90
2023/01/09 10:47:53;;;;;;;12.20;6.90;;;;;;;;;;4849177;28;20041;-89
2023/01/09 10:51:00;;;;;;;;;;;;;;;;;;;;;
2023/01/09 10:54:17;;;;;;;;;;;;;;;;;;;;;
2023/01/09 11:00:54;;;;;;;;;;;;;;;;;;;;;
2023/01/09 11:03:36;;;;;;;10.18;5.57;;;;;;;;;;4890276;28;20424;-89
2023/01/09 11:06:45;;;;;;;8.85;4.93;;;;;;;;;;4913619;28;20159;-89
2023/01/09 11:09:10;;;;;;;7.60;4.63;;;;;;;;;;5021659;28;20041;-83
2023/01/09 11:11:39;;;;;;;8.40;4.80;;;;;;;;;;5040908;28;20030;-82
2023/01/09 11:18:37;;;;;;;7.38;4.00;;;;;;;;;;5002580;28;20045;-81
2023/01/09 11:21:13;;;;;;;7.65;4.20;;;;;;;;;;4941716;28;20045;-79
2023/01/09 11:23:38;;;;;;;8.35;4.15;;;;;;;;;;5030183;28;20467;-79
2023/01/09 11:26:04;;;;;;;6.38;3.55;;;;;;;;;;5022273;28;20123;-79
2023/01/09 11:28:29;;;;;;;6.93;3.72;;;;;;;;;;5027076;28;20033;-79
2023/01/09 11:30:55;;;;;;;6.93;3.65;;;;;;;;;;5016013;28;20033;-80
2023/01/09 11:33:24;;;;;;;6.45;4.13;;;;;;;;;;5051383;28;20048;-79
2023/01/09 11:36:07;;;;;;;6.38;3.65;;;;;;;;;;5017074;28;20613;-80
2023/01/09 11:38:47;;;;;;;7.20;3.22;;;;;;;;;;5035592;28;20449;-80
2023/01/09 11:41:21;;;;;;;8.88;3.85;;;;;;;;;;5064193;28;20094;-79
2023/01/09 11:43:49;;;;;;;6.68;3.63;;;;;;;;;;5013830;28;20041;-78
2023/01/09 11:46:36;;;;;;;7.13;3.53;;;;;;;;;;5015778;28;20392;-78
2023/01/09 11:49:04;;;;;;;8.18;3.50;;;;;;;;;;5036319;28;20193;-80
2023/01/09 11:51:34;;;;;;;5.13;3.00;;;;;;;;;;5037392;28;20041;-83
2023/01/09 11:54:18;;;;;;;5.53;3.00;;;;;;;;;;5007680;28;20042;-83
2023/01/09 11:56:43;;;;;;;5.68;2.55;;;;;;;;;;5055318;28;20045;-83
2023/01/09 11:59:11;;;;;;;6.68;2.92;;;;;;;;;;5017771;28;20048;-83
2023/01/09 12:01:41;;;;;;;;;;;;;;;;;;5021588;28;20028;-83
2023/01/09 12:04:27;;;;;;;5.03;2.30;;;;;;;;;;5012864;28;20377;-83
2023/01/09 12:06:59;;;;;;;5.13;2.78;;;;;;;;;;5050830;28;20045;-83
2023/01/09 12:09:37;;;;;;;5.97;2.63;;;;;;;;;;5046764;28;20053;-83
2023/01/09 12:12:07;;;;;;;5.60;2.35;;;;;;;;;;5016266;28;20109;-83
2023/01/09 12:14:59;;;;;;;5.95;2.60;;;;;;;;;;5071038;28;20036;-83
2023/01/09 12:17:42;;;;;;;4.75;2.15;;;;;;;;;;5067544;28;20037;-83
2023/01/09 12:20:26;;;;;;;3.75;1.90;;;;;;;;;;5064677;28;20051;-84
2023/01/09 12:23:22;;;;;;;3.35;1.80;;;;;;;;;;5066327;28;20033;-84
2023/01/09 12:26:19;;;;;;;4.10;2.10;;;;;;;;;;5018552;28;20040;-83
2023/01/09 12:28:57;;;;;;;4.63;1.85;;;;;;;;;;5047841;28;20033;-83
2023/01/09 12:31:39;;;;;;;3.65;1.67;;;;;;;;;;5012068;28;20131;-84
2023/01/09 12:34:10;;;;;;;4.85;1.90;;;;;;;;;;5034993;28;20132;-82
2023/01/09 12:36:35;;;;;;;3.83;1.92;;;;;;;;;;5049494;28;20089;-83
2023/01/09 12:39:18;;;;;;;3.92;1.67;;;;;;;;;;5024010;28;20037;-83
2023/01/09 12:41:59;;;;;;;4.00;1.80;;;;;;;;;;5032598;28;20392;-82
2023/01/09 12:44:29;;;;;;;3.45;1.55;;;;;;;;;;5046955;28;20044;-83
2023/01/09 12:46:57;;;;;;;4.65;2.10;;;;;;;;;;5046465;28;20163;-83
2023/01/09 12:49:28;;;;;;;4.13;2.08;;;;;;;;;;5033941;28;20037;-83
2023/01/09 12:52:06;;;;;;;5.47;1.98;;;;;;;;;;5037034;28;20621;-82
2023/01/09 12:54:53;;;;;;;4.55;1.75;;;;;;;;;;5053325;28;20040;-82
2023/01/09 12:57:37;;;;;;;4.13;1.60;;;;;;;;;;5008170;28;20047;-83
2023/01/09 13:00:06;;;;;;;3.58;1.40;;;;;;;;;;5032340;28;20451;-82
2023/01/09 13:02:33;;;;;;;3.75;1.48;;;;;;;;;;5033116;28;20036;-83
2023/01/09 13:05:02;;;;;;;2.65;1.25;;;;;;;;;;5025041;28;20506;-83
2023/01/09 13:07:33;;;;;;;6.10;1.35;;;;;;;;;;5005013;28;20409;-83
2023/01/09 13:10:03;;;;;;;3.63;1.50;;;;;;;;;;5004327;28;20045;-82
2023/01/09 13:12:33;;;;;;;4.10;1.30;;;;;;;;;;4997769;28;20432;-82
2023/01/09 13:15:04;;;;;;;3.50;1.42;;;;;;;;;;4999951;28;20049;-83
2023/01/09 13:17:36;;;;;;;4.35;1.17;;;;;;;;;;5016354;28;20040;-82
2023/01/09 13:20:16;;;;;;;4.00;1.45;;;;;;;;;;5001142;28;20033;-83
2023/01/09 13:22:46;;;;;;;4.35;1.40;;;;;;;;;;4997910;28;20477;-83
2023/01/09 13:25:30;;;;;;;2.78;1.10;;;;;;;;;;5001121;28;20389;-83
2023/01/09 13:28:03;;;;;;;3.10;1.27;;;;;;;;;;5020319;28;20033;-83
2023/01/09 13:31:05;;;;;;;2.58;1.08;;;;;;;;;;5000466;28;20523;-83
2023/01/09 13:33:36;;;;;;;3.38;1.20;;;;;;;;;;4991109;28;20049;-83
2023/01/09 13:36:02;;;;;;;4.53;1.30;;;;;;;;;;5023418;28;20038;-82
2023/01/09 13:38:30;;;;;;;5.45;1.25;;;;;;;;;;5006786;28;20044;-83
2023/01/09 13:43:58;;;;;;;4.32;1.50;;;;;;;;;;5003450;28;20407;-82
2023/01/09 13:46:45;;;;;;;3.72;1.30;;;;;;;;;;5029633;28;20123;-82
2023/01/09 13:49:45;;;;;;;3.80;1.90;;;;;;;;;;4988400;28;20545;-83
2023/01/09 13:52:23;;;;;;;5.45;2.15;;;;;;;;;;4967272;28;20565;-83
2023/01/09 13:54:54;;;;;;;7.88;1.92;;;;;;;;;;4995732;28;20030;-82
2023/01/09 13:57:19;;;;;;;4.72;1.55;;;;;;;;;;4995905;28;20218;-81
2023/01/09 13:59:48;;;;;;;3.85;1.40;;;;;;;;;;4997037;28;20694;-82
2023/01/09 14:02:38;;;;;;;3.40;1.30;;;;;;;;;;4983432;28;20037;-82
2023/01/09 14:05:14;;;;;;;3.35;1.23;;;;;;;;;;5035477;28;20046;-82
2023/01/09 14:07:48;;;;;;;3.25;1.75;;;;;;;;;;5038112;28;20063;-83
2023/01/09 14:10:38;;;;;;;4.55;1.73;;;;;;;;;;5015684;28;20068;-84
2023/01/09 14:13:20;;;;;;;3.38;1.23;;;;;;;;;;5013454;28;20049;-83
2023/01/09 14:15:46;;;;;;;2.70;1.20;;;;;;;;;;5053922;28;20693;-84
2023/01/09 14:18:22;;;;;;;3.20;1.23;;;;;;;;;;5053209;28;20033;-86
2023/01/09 14:21:05;;;;;;;3.55;1.35;;;;;;;;;;5020837;28;20032;-84
2023/01/09 14:23:49;;;;;;;2.67;1.05;;;;;;;;;;5030363;28;20484;-85
2023/01/09 14:26:41;;;;;;;3.90;1.25;;;;;;;;;;5017535;28;20037;-85
2023/01/09 14:29:28;;;;;;;2.90;1.20;;;;;;;;;;5009933;28;20037;-86
2023/01/09 14:32:21;;;;;;;2.83;1.20;;;;;;;;;;5021292;28;20040;-85
2023/01/09 14:34:56;;;;;;;3.78;1.38;;;;;;;;;;5035510;28;20042;-84
2023/01/09 14:37:22;;;;;;;2.83;1.20;;;;;;;;;;5041264;28;20432;-86
2023/01/09 14:39:49;;;;;;;4.03;0.93;;;;;;;;;;5037869;28;20040;-85
2023/01/09 14:42:22;;;;;;;3.90;1.15;;;;;;;;;;5018352;28;20064;-85
2023/01/09 14:44:47;;;;;;;2.42;0.90;;;;;;;;;;5030643;28;20495;-86
2023/01/09 14:47:39;;;;;;;3.17;1.10;;;;;;;;;;5018193;28;20048;-85
2023/01/09 14:50:23;;;;;;;3.45;0.90;;;;;;;;;;5027581;28;20407;-85
2023/01/09 14:52:52;;;;;;;3.80;1.20;;;;;;;;;;5025498;28;20032;-86
2023/01/09 14:55:50;;;;;;;3.72;1.35;;;;;;;;;;5020633;28;20037;-85
2023/01/09 14:58:23;;;;;;;4.00;1.40;;;;;;;;;;4955118;28;20046;-85
2023/01/09 15:01:04;;;;;;;4.20;1.40;;;;;;;;;;4955613;28;20042;-85
2023/01/09 15:03:35;;;;;;;5.35;1.50;;;;;;;;;;4951182;28;20062;-84
2023/01/09 15:06:01;;;;;;;4.35;1.60;;;;;;;;;;4933702;28;20105;-85
2023/01/09 15:08:27;;;;;;;6.03;2.08;;;;;;;;;;4961394;28;20513;-86
2023/01/09 15:10:53;;;;;;;6.22;1.95;;;;;;;;;;4972072;28;20186;-85
2023/01/09 15:13:40;;;;;;;7.00;2.60;;;;;;;;;;4966592;28;20046;-85
2023/01/09 15:16:16;;;;;;;5.05;1.90;;;;;;;;;;4972356;28;20045;-85
2023/01/09 15:18:46;;;;;;;3.50;1.70;;;;;;;;;;4973202;28;20034;-84
2023/01/09 15:21:20;;;;;;;4.60;1.70;;;;;;;;;;4975039;28;20060;-86
2023/01/09 15:23:46;;;;;;;4.18;1.60;;;;;;;;;;4989346;28;20097;-86
2023/01/09 15:26:26;;;;;;;4.15;1.40;;;;;;;;;;4974857;28;20517;-87
2023/01/09 15:29:01;;;;;;;4.32;1.55;;;;;;;;;;4970030;28;20905;-86
2023/01/09 15:31:28;;;;;;;3.78;1.55;;;;;;;;;;4955630;28;20049;-86
2023/01/09 15:33:57;;;;;;;3.58;1.40;;;;;;;;;;4956582;28;20165;-84
2023/01/09 15:36:24;;;;;;;4.32;1.40;;;;;;;;;;5023294;28;20045;-86
2023/01/09 15:38:50;;;;;;;4.00;1.40;;;;;;;;;;5013308;28;20457;-85
2023/01/09 15:42:54;;;;;;;3.03;1.20;;;;;;;;;;5065469;28;20718;-86
2023/01/09 15:44:12;;;;;;;3.08;1.35;;;;;;;;;;5037065;28;20049;-87
2023/01/09 15:46:39;;;;;;;5.82;1.60;;;;;;;;;;5049232;28;20466;-86
2023/01/09 15:49:04;;;;;;;3.88;1.73;;;;;;;;;;5020967;28;20044;-86
2023/01/09 15:51:32;;;;;;;3.97;1.60;;;;;;;;;;5029140;28;20040;-85
2023/01/09 15:54:02;;;;;;;3.78;1.67;;;;;;;;;;5047866;28;20677;-86
2023/01/09 15:56:32;;;;;;;6.28;1.83;;;;;;;;;;5033614;28;20690;-85
2023/01/09 15:59:00;;;;;;;5.53;1.95;;;;;;;;;;5049488;28;20039;-86
2023/01/09 16:01:29;;;;;;;3.05;1.50;;;;;;;;;;5006796;28;20106;-86
2023/01/09 16:04:22;;;;;;;3.70;1.25;;;;;;;;;;5040847;28;20082;-86
2023/01/09 16:07:14;;;;;;;3.20;1.33;;;;;;;;;;5049200;28;20465;-85
2023/01/09 16:10:02;;;;;;;;;;;;;;;;;;;;;
2023/01/09 16:16:39;;;;;;;6.20;1.83;;;;;;;;;;4994520;28;20109;-85
2023/01/09 16:22:41;;;;;;;;;;;;;;;;;;;;;
2023/01/09 17:06:32;;;;;;;5.28;1.70;;;;;;;;;;4563341;29;5346976;-86
2023/01/09 17:10:02;;;;;;;;;;;;;;;;;;;;;
2023/01/09 17:20:26;;;;;;;4.45;1.33;;;;;;;;;;4685342;30;20123;-85
2023/01/09 17:33:46;;;;;;;2.97;1.38;;;;;;;;;;4743648;29;20055;-85
2023/01/09 17:36:49;;;;;;;4.63;1.85;;;;;;;;;;4804334;29;20076;-86
2023/01/09 17:40:05;;;;;;;3.92;1.75;;;;;;;;;;4778445;29;20045;-87
2023/01/09 17:42:31;;;;;;;4.65;2.00;;;;;;;;;;4811924;29;20037;-87
2023/01/09 17:44:59;;;;;;;2.85;1.42;;;;;;;;;;4823187;29;20582;-86
2023/01/09 17:47:35;;;;;;;2.35;1.00;;;;;;;;;;4834260;29;20402;-86
2023/01/09 17:50:07;;;;;;;2.38;0.82;;;;;;;;;;4909660;28;20038;-86
2023/01/09 17:53:08;;;;;;;3.42;1.17;;;;;;;;;;4935046;28;20042;-86
2023/01/09 17:59:02;;;;;;;2.92;1.17;;;;;;;;;;4874707;29;20131;-85
2023/01/09 18:01:30;;;;;;;3.20;0.98;;;;;;;;;;4852651;29;20535;-85
2023/01/09 18:03:55;;;;;;;3.50;1.38;;;;;;;;;;4906187;28;20527;-86
2023/01/09 18:06:32;;;;;;;3.72;1.58;;;;;;;;;;4919412;28;20050;-86
2023/01/09 18:09:13;;;;;;;3.13;1.25;;;;;;;;;;4928461;28;20074;-86
2023/01/09 18:11:56;;;;;;;4.15;1.30;;;;;;;;;;4945614;28;20046;-86
2023/01/09 18:14:32;;;;;;;3.13;1.20;;;;;;;;;;4927760;28;20058;-86
2023/01/09 18:17:08;;;;;;;3.30;1.13;;;;;;;;;;4945289;28;20039;-87
2023/01/09 18:26:56;;;;;;;3.15;1.13;;;;;;;;;;4849574;29;20052;-87
2023/01/09 18:30:08;;;;;;;;;;;;;;;;;;;;;
2023/01/09 18:47:01;;;;;;;3.28;1.20;;;;;;;;;;4920471;29;20165;-87
2023/01/09 18:56:37;;;;;;;2.97;1.20;;;;;;;;;;4799619;29;20220;-85
2023/01/09 19:00:07;;;;;;;3.53;1.20;;;;;;;;;;4855195;29;20153;-85
2023/01/09 19:06:26;;;;;;;;;;;;;;;;;;;;;
2023/01/09 19:08:53;;;;;;;2.35;0.90;;;;;;;;;;4931348;28;20075;-86
2023/01/09 19:11:48;;;;;;;2.60;0.90;;;;;;;;;;4973910;28;20050;-88
2023/01/09 19:14:14;;;;;;;2.30;0.80;;;;;;;;;;4948992;28;20071;-83
2023/01/09 19:16:39;;;;;;;1.95;1.00;;;;;;;;;;5008178;28;20083;-84
2023/01/09 19:19:05;;;;;;;4.70;1.13;;;;;;;;;;5018082;28;20044;-86
2023/01/09 19:21:31;;;;;;;2.30;0.90;;;;;;;;;;5068143;28;20500;-86
2023/01/09 19:24:55;;;;;;;;;;;;;;;;;;;;;
2023/01/09 19:27:35;;;;;;;2.20;0.90;;;;;;;;;;5034465;28;20530;-86
2023/01/09 19:30:09;;;;;;;2.55;0.90;;;;;;;;;;4977574;28;20187;-86
2023/01/09 19:32:38;;;;;;;2.15;1.00;;;;;;;;;;4999740;28;20033;-85
2023/01/09 19:35:03;;;;;;;3.78;1.40;;;;;;;;;;5013194;28;20055;-82
2023/01/09 19:37:29;;;;;;;2.97;1.00;;;;;;;;;;5070282;28;20053;-84
2023/01/09 19:39:54;;;;;;;2.15;0.82;;;;;;;;;;5027839;28;20037;-82
2023/01/09 19:42:19;;;;;;;2.65;1.00;;;;;;;;;;5032715;28;20960;-84
2023/01/09 19:44:45;;;;;;;3.30;1.30;;;;;;;;;;5039695;28;20040;-82
2023/01/09 19:47:12;;;;;;;2.20;1.00;;;;;;;;;;5066337;28;20047;-83
2023/01/09 19:49:38;;;;;;;4.43;1.45;;;;;;;;;;5070483;28;20539;-82
2023/01/09 19:52:04;;;;;;;2.35;1.00;;;;;;;;;;5065218;28;20078;-83
2023/01/09 19:54:30;;;;;;;3.45;1.20;;;;;;;;;;5021788;28;20063;-84
2023/01/09 19:56:55;;;;;;;3.15;1.30;;;;;;;;;;5018820;28;20120;-82
2023/01/09 19:59:21;;;;;;;2.97;1.40;;;;;;;;;;5039592;28;20101;-83
2023/01/09 20:01:46;;;;;;;3.58;1.45;;;;;;;;;;5044053;28;20064;-83
2023/01/09 20:04:12;;;;;;;4.38;1.30;;;;;;;;;;5013760;28;20065;-81
2023/01/09 20:06:42;;;;;;;2.72;1.23;;;;;;;;;;5013402;28;20447;-83
2023/01/09 20:09:11;;;;;;;3.65;1.10;;;;;;;;;;5062520;28;20060;-83
2023/01/09 20:11:39;;;;;;;2.78;1.00;;;;;;;;;;5080170;28;20053;-83
2023/01/09 20:14:05;;;;;;;2.78;1.10;;;;;;;;;;5050254;28;20306;-83
2023/01/09 20:16:30;;;;;;;3.20;0.90;;;;;;;;;;5065177;28;20037;-83
2023/01/09 20:18:57;;;;;;;2.35;0.90;;;;;;;;;;5055411;28;20028;-82
2023/01/09 20:21:25;;;;;;;2.77;1.30;;;;;;;;;;5056481;28;20071;-82
2023/01/09 20:23:52;;;;;;;5.40;2.10;;;;;;;;;;5057504;28;20048;-83
2023/01/09 20:26:18;;;;;;;3.83;1.40;;;;;;;;;;5013140;28;20052;-84
2023/01/09 20:28:44;;;;;;;3.30;1.30;;;;;;;;;;5021954;28;20114;-85
2023/01/09 20:31:11;;;;;;;2.58;1.13;;;;;;;;;;5015784;28;20160;-85
2023/01/09 20:33:37;;;;;;;3.67;1.20;;;;;;;;;;5014644;28;20032;-81
2023/01/09 20:36:05;;;;;;;2.95;0.90;;;;;;;;;;5049676;28;20063;-84
2023/01/09 20:38:31;;;;;;;3.45;1.35;;;;;;;;;;5039498;28;20400;-85
2023/01/09 20:40:56;;;;;;;2.05;0.88;;;;;;;;;;5041510;28;20042;-85
2023/01/09 20:43:22;;;;;;;2.47;1.00;;;;;;;;;;5037014;28;20488;-84
2023/01/09 20:45:48;;;;;;;2.47;1.10;;;;;;;;;;5056649;28;20029;-84
2023/01/09 20:48:13;;;;;;;1.95;0.77;;;;;;;;;;5027463;28;20075;-84
2023/01/09 20:50:39;;;;;;;2.65;1.20;;;;;;;;;;5009163;28;20044;-83